createdAt,value
2023-03-06T00:01:05.057Z,15.10
2023-03-06T00:03:33.954Z,17.65
2023-03-06T00:06:02.786Z,17.00
2023-03-06T00:08:31.242Z,15.90
2023-03-06T00:10:59.827Z,17.58
2023-03-06T00:13:30.718Z,17.88
2023-03-06T00:16:01.157Z,17.63
2023-03-06T00:18:29.511Z,17.38
2023-03-06T00:20:58.193Z,17.48
2023-03-06T00:23:27.941Z,17.58
2023-03-06T00:25:56.521Z,17.38
2023-03-06T00:28:24.841Z,17.80
2023-03-06T00:30:53.481Z,18.38
2023-03-06T00:33:21.788Z,18.45
2023-03-06T00:35:50.453Z,16.88
2023-03-06T00:38:18.872Z,17.17
2023-03-06T00:40:47.638Z,18.00
2023-03-06T00:43:15.980Z,17.02
2023-03-06T00:45:44.795Z,19.88
2023-03-06T00:48:13.231Z,17.20
2023-03-06T00:50:41.956Z,18.85
2023-03-06T00:53:13.397Z,16.88
2023-03-06T00:55:45.788Z,18.00
2023-03-06T00:58:14.218Z,17.17
2023-03-06T01:00:43.944Z,17.25
2023-03-06T01:03:12.254Z,17.17
2023-03-06T01:05:41.088Z,19.08
2023-03-06T01:08:09.344Z,19.60
2023-03-06T01:10:41.204Z,18.15
2023-03-06T01:13:10.956Z,18.52
2023-03-06T01:15:39.501Z,19.25
2023-03-06T01:18:07.751Z,19.85
2023-03-06T01:20:38.500Z,18.63
2023-03-06T01:23:06.833Z,18.65
2023-03-06T01:25:35.545Z,17.35
2023-03-06T01:28:04.067Z,17.80
2023-03-06T01:30:32.804Z,18.92
2023-03-06T01:33:02.871Z,18.77
2023-03-06T01:35:31.492Z,20.42
2023-03-06T01:37:59.752Z,20.05
2023-03-06T01:40:28.388Z,19.95
2023-03-06T01:42:56.674Z,20.23
2023-03-06T01:45:25.253Z,19.20
2023-03-06T01:47:53.551Z,18.65
2023-03-06T01:50:22.418Z,18.67
2023-03-06T01:52:57.815Z,19.63
2023-03-06T01:55:33.453Z,18.70
2023-03-06T01:58:05.649Z,18.95
2023-03-06T02:00:34.536Z,19.50
2023-03-06T02:03:09.469Z,19.05
2023-03-06T02:05:40.926Z,19.70
2023-03-06T02:08:15.793Z,20.27
2023-03-06T02:11:13.901Z,19.85
2023-03-06T02:13:42.420Z,20.20
2023-03-06T02:16:12.005Z,18.55
2023-03-06T02:18:41.044Z,18.48
2023-03-06T02:21:12.648Z,18.65
2023-03-06T02:23:57.791Z,18.95
2023-03-06T02:26:27.277Z,20.10
2023-03-06T02:28:58.707Z,18.65
2023-03-06T02:31:31.482Z,19.38
2023-03-06T02:34:15.491Z,20.75
2023-03-06T02:36:50.749Z,18.63
2023-03-06T02:39:20.821Z,18.15
2023-03-06T02:41:49.794Z,20.10
2023-03-06T02:44:22.312Z,19.13
2023-03-06T02:46:51.037Z,19.80
2023-03-06T02:49:19.397Z,19.05
2023-03-06T02:51:48.478Z,18.45
2023-03-06T02:54:18.568Z,19.30
2023-03-06T02:56:47.627Z,20.48
2023-03-06T02:59:15.983Z,19.73
2023-03-06T03:01:44.656Z,19.52
2023-03-06T03:04:13.198Z,18.95
2023-03-06T03:06:42.980Z,19.33
2023-03-06T03:09:12.625Z,18.92
2023-03-06T03:11:41.252Z,19.83
2023-03-06T03:14:10.005Z,17.83
2023-03-06T03:16:39.288Z,19.17
2023-03-06T03:19:07.722Z,17.95
2023-03-06T03:21:36.559Z,17.65
2023-03-06T03:24:05.067Z,18.63
2023-03-06T03:26:33.695Z,19.60
2023-03-06T03:29:10.920Z,18.40
2023-03-06T03:31:39.687Z,18.23
2023-03-06T03:34:08.929Z,19.70
2023-03-06T03:36:40.691Z,18.40
2023-03-06T03:39:10.780Z,18.08
2023-03-06T03:41:39.887Z,18.05
2023-03-06T03:44:10.880Z,20.45
2023-03-06T03:46:39.788Z,18.20
2023-03-06T03:49:13.227Z,17.38
2023-03-06T03:51:42.033Z,16.20
2023-03-06T03:54:11.078Z,17.38
2023-03-06T03:59:22.123Z,19.65
2023-03-06T04:02:04.976Z,18.42
2023-03-06T04:04:38.627Z,18.23
2023-03-06T04:07:08.274Z,18.92
2023-03-06T04:09:38.086Z,19.73
2023-03-06T04:12:07.986Z,18.90
2023-03-06T04:14:38.064Z,18.17
2023-03-06T04:17:07.684Z,17.90
2023-03-06T04:19:36.623Z,18.90
2023-03-06T04:22:05.244Z,20.02
2023-03-06T04:24:36.583Z,19.08
2023-03-06T04:27:05.633Z,19.05
2023-03-06T04:29:33.965Z,18.42
2023-03-06T04:32:03.261Z,18.27
2023-03-06T04:34:31.659Z,18.55
2023-03-06T04:37:00.225Z,19.60
2023-03-06T04:39:28.647Z,19.13
2023-03-06T04:41:57.507Z,18.48
2023-03-06T04:44:25.957Z,19.75
2023-03-06T04:46:54.561Z,19.50
2023-03-06T04:49:22.868Z,18.50
2023-03-06T04:51:51.489Z,19.67
2023-03-06T04:54:19.787Z,17.48
2023-03-06T04:56:48.433Z,19.05
2023-03-06T04:59:16.792Z,18.48
2023-03-06T05:01:45.655Z,18.33
2023-03-06T05:04:14.247Z,18.27
2023-03-06T05:06:43.573Z,18.77
2023-03-06T05:09:12.117Z,18.15
2023-03-06T05:11:40.961Z,16.65
2023-03-06T05:14:09.485Z,16.42
2023-03-06T05:16:38.522Z,17.98
2023-03-06T05:19:07.076Z,16.98
2023-03-06T05:21:35.948Z,16.58
2023-03-06T05:24:04.810Z,16.02
2023-03-06T05:26:34.770Z,16.33
2023-03-06T05:29:03.294Z,16.30
2023-03-06T05:31:32.180Z,15.30
2023-03-06T05:34:00.927Z,17.65
2023-03-06T05:36:29.757Z,16.63
2023-03-06T05:38:58.280Z,16.67
2023-03-06T05:41:27.417Z,16.38
2023-03-06T05:43:57.159Z,15.63
2023-03-06T05:46:26.101Z,15.85
2023-03-06T05:48:58.125Z,17.40
2023-03-06T05:51:27.205Z,14.52
2023-03-06T05:53:55.816Z,15.63
2023-03-06T05:56:24.760Z,16.38
2023-03-06T05:58:53.320Z,15.88
2023-03-06T06:01:22.286Z,16.95
2023-03-06T06:03:50.998Z,15.60
2023-03-06T06:06:19.899Z,15.50
2023-03-06T06:08:48.435Z,16.95
2023-03-06T06:11:19.246Z,17.88
2023-03-06T06:13:49.028Z,17.52
2023-03-06T06:16:19.424Z,16.92
2023-03-06T06:18:47.950Z,15.90
2023-03-06T06:21:16.890Z,16.80
2023-03-06T06:23:45.475Z,17.35
2023-03-06T06:26:15.214Z,18.05
2023-03-06T06:28:44.264Z,19.13
2023-03-06T06:31:13.551Z,19.55
2023-03-06T06:33:42.148Z,19.67
2023-03-06T06:36:19.064Z,18.15
2023-03-06T06:38:47.794Z,19.15
2023-03-06T06:41:39.292Z,19.88
2023-03-06T06:44:11.532Z,20.10
2023-03-06T06:47:20.682Z,19.20
2023-03-06T06:49:28.972Z,20.42
2023-03-06T06:51:58.248Z,20.20
2023-03-06T06:54:26.940Z,19.13
2023-03-06T06:56:55.780Z,19.55
2023-03-06T06:59:24.361Z,18.88
2023-03-06T07:01:53.473Z,20.15
2023-03-06T07:04:22.070Z,20.63
2023-03-06T07:06:50.814Z,19.45
2023-03-06T07:09:20.275Z,21.33
2023-03-06T07:11:49.190Z,21.77
2023-03-06T07:14:17.857Z,21.48
2023-03-06T07:16:46.707Z,21.45
2023-03-06T07:19:15.370Z,21.60
2023-03-06T07:21:44.154Z,21.52
2023-03-06T07:24:12.599Z,22.25
2023-03-06T07:26:41.435Z,20.88
2023-03-06T07:29:09.905Z,20.63
2023-03-06T07:31:38.771Z,21.50
2023-03-06T07:34:07.459Z,22.13
2023-03-06T07:36:36.457Z,21.42
2023-03-06T07:39:04.931Z,21.23
2023-03-06T07:41:33.980Z,24.05
2023-03-06T07:44:02.588Z,23.48
2023-03-06T07:46:31.517Z,23.80
2023-03-06T07:49:00.199Z,21.67
2023-03-06T07:51:28.994Z,21.83
2023-03-06T07:53:57.466Z,21.88
2023-03-06T07:56:26.321Z,22.95
2023-03-06T07:58:56.097Z,22.50
2023-03-06T08:01:26.000Z,22.35
2023-03-06T08:03:54.690Z,22.67
2023-03-06T08:06:27.902Z,23.42
2023-03-06T08:08:57.052Z,23.38
2023-03-06T08:11:28.067Z,22.42
2023-03-06T08:13:57.679Z,22.60
2023-03-06T08:16:29.266Z,23.55
2023-03-06T08:18:57.958Z,21.75
2023-03-06T08:21:28.190Z,22.17
2023-03-06T08:23:56.713Z,24.13
2023-03-06T08:26:31.266Z,23.52
2023-03-06T08:29:00.943Z,23.90
2023-03-06T08:31:38.094Z,22.75
2023-03-06T08:34:14.547Z,21.35
2023-03-06T08:36:43.603Z,22.52
2023-03-06T08:39:12.296Z,23.25
2023-03-06T08:41:42.401Z,23.90
2023-03-06T08:44:11.045Z,22.27
2023-03-06T08:46:39.990Z,22.30
2023-03-06T08:49:09.518Z,21.48
2023-03-06T08:51:38.583Z,23.13
2023-03-06T08:54:07.593Z,21.67
2023-03-06T08:56:36.426Z,21.65
2023-03-06T08:59:06.100Z,21.38
2023-03-06T09:01:53.736Z,21.95
2023-03-06T09:04:22.101Z,22.10
2023-03-06T09:06:51.066Z,21.85
2023-03-06T09:09:19.464Z,22.10
2023-03-06T09:11:48.191Z,20.90
2023-03-06T09:14:16.531Z,22.00
2023-03-06T09:16:45.246Z,21.20
2023-03-06T09:19:13.663Z,20.70
2023-03-06T09:21:42.607Z,22.13
2023-03-06T09:24:11.003Z,20.85
2023-03-06T09:26:45.959Z,20.70
2023-03-06T09:29:16.522Z,21.65
2023-03-06T09:31:45.920Z,19.98
2023-03-06T09:34:14.505Z,22.25
2023-03-06T09:36:55.850Z,22.13
2023-03-06T09:39:26.467Z,21.83
2023-03-06T09:41:55.704Z,22.30
2023-03-06T09:44:35.075Z,21.10
2023-03-06T09:47:37.812Z,22.42
2023-03-06T09:50:37.513Z,20.92
2023-03-06T09:53:30.664Z,21.17
2023-03-06T09:56:13.838Z,21.58
2023-03-06T09:59:13.729Z,20.17
2023-03-06T10:01:42.778Z,21.55
2023-03-06T10:04:42.303Z,23.23
2023-03-06T10:07:25.983Z,21.90
2023-03-06T10:09:59.207Z,21.25
2023-03-06T10:12:39.438Z,22.92
2023-03-06T10:15:29.292Z,21.15
2023-03-06T10:17:57.707Z,21.00
2023-03-06T10:20:35.418Z,20.95
2023-03-06T10:23:34.867Z,19.92
2023-03-06T10:26:13.058Z,20.25
2023-03-06T10:29:29.870Z,19.73
2023-03-06T10:32:48.819Z,19.65
2023-03-06T10:35:24.305Z,19.45
2023-03-06T10:38:12.599Z,19.23
2023-03-06T10:41:03.842Z,19.42
2023-03-06T10:43:35.210Z,20.10
2023-03-06T10:46:05.533Z,19.85
2023-03-06T10:48:36.540Z,18.60
2023-03-06T10:51:23.273Z,18.08
2023-03-06T10:53:59.644Z,18.88
2023-03-06T10:56:33.656Z,16.73
2023-03-06T10:59:25.689Z,17.15
2023-03-06T11:01:59.003Z,18.13
2023-03-06T11:04:35.722Z,18.27
2023-03-06T11:07:15.893Z,17.83
2023-03-06T11:09:57.254Z,18.55
2023-03-06T11:12:41.083Z,18.50
2023-03-06T11:15:15.219Z,17.52
2023-03-06T11:18:00.018Z,18.15
2023-03-06T11:20:51.479Z,17.63
2023-03-06T11:23:32.751Z,17.50
2023-03-06T11:26:24.725Z,16.25
2023-03-06T11:29:24.773Z,17.38
2023-03-06T11:31:57.448Z,18.55
2023-03-06T11:34:51.649Z,17.67
2023-03-06T11:38:07.257Z,16.52
2023-03-06T11:40:47.235Z,17.58
2023-03-06T11:43:30.799Z,17.60
2023-03-06T11:46:31.558Z,16.65
2023-03-06T11:49:31.305Z,17.80
2023-03-06T11:52:05.512Z,16.92
2023-03-06T11:54:34.542Z,17.92
2023-03-06T11:57:06.412Z,17.50
2023-03-06T11:59:56.726Z,17.57
2023-03-06T12:02:46.385Z,18.63
2023-03-06T12:05:41.913Z,19.20
2023-03-06T12:08:34.705Z,18.92
2023-03-06T12:11:23.524Z,18.50
2023-03-06T12:14:15.860Z,18.52
2023-03-06T12:17:08.629Z,18.45
2023-03-06T12:20:24.474Z,19.00
2023-03-06T12:23:34.305Z,28.50
2023-03-06T12:26:46.684Z,28.55
2023-03-06T12:29:28.634Z,28.48
2023-03-06T12:32:23.099Z,27.88
2023-03-06T12:35:08.966Z,28.65
2023-03-06T12:37:53.763Z,27.77
2023-03-06T12:41:08.316Z,26.55
2023-03-06T12:44:16.366Z,27.17
2023-03-06T12:46:50.049Z,23.30
2023-03-06T12:49:32.661Z,22.15
2023-03-06T12:52:02.270Z,22.48
2023-03-06T12:54:33.600Z,24.33
2023-03-06T12:57:02.490Z,22.92
2023-03-06T12:59:49.863Z,23.15
2023-03-06T13:02:33.548Z,19.98
2023-03-06T13:05:11.089Z,18.90
2023-03-06T13:07:56.152Z,19.60
2023-03-06T13:10:35.617Z,18.95
2023-03-06T13:13:14.308Z,17.50
2023-03-06T13:15:47.417Z,17.10
2023-03-06T13:18:22.355Z,17.55
2023-03-06T13:20:56.939Z,17.55
2023-03-06T13:23:38.846Z,17.25
2023-03-06T13:26:12.050Z,17.63
2023-03-06T13:28:54.410Z,17.42
2023-03-06T13:31:36.603Z,16.77
2023-03-06T13:34:48.338Z,16.83
2023-03-06T13:37:25.535Z,15.60
2023-03-06T13:40:00.099Z,13.70
2023-03-06T13:42:33.053Z,14.27
2023-03-06T13:45:16.283Z,13.68
2023-03-06T13:50:50.102Z,15.00
2023-03-06T13:53:31.543Z,15.90
2023-03-06T13:56:22.132Z,16.27
2023-03-06T13:59:28.261Z,15.65
2023-03-06T14:02:30.446Z,13.65
2023-03-06T14:05:00.390Z,15.65
2023-03-06T14:07:34.148Z,15.98
2023-03-06T14:10:24.074Z,16.67
2023-03-06T14:12:59.057Z,14.55
2023-03-06T14:15:51.037Z,15.43
2023-03-06T14:18:38.621Z,15.57
2023-03-06T14:21:13.541Z,16.48
2023-03-06T14:23:43.711Z,15.32
2023-03-06T14:26:19.501Z,16.77
2023-03-06T14:28:57.138Z,16.67
2023-03-06T14:31:38.004Z,16.10
2023-03-06T14:34:29.290Z,16.10
2023-03-06T14:37:08.385Z,16.10
2023-03-06T14:39:40.067Z,15.90
2023-03-06T14:42:26.134Z,15.00
2023-03-06T14:45:05.966Z,16.27
2023-03-06T14:47:36.884Z,15.10
2023-03-06T14:50:28.785Z,15.02
2023-03-06T14:53:05.207Z,16.10
2023-03-06T14:55:35.630Z,14.65
2023-03-06T14:58:11.564Z,15.40
2023-03-06T15:00:44.170Z,16.58
2023-03-06T15:03:26.998Z,15.40
2023-03-06T15:05:55.863Z,16.27
2023-03-06T15:08:30.442Z,14.90
2023-03-06T15:11:04.783Z,15.55
2023-03-06T15:13:34.274Z,15.75
2023-03-06T15:16:13.425Z,16.63
2023-03-06T15:19:03.530Z,16.20
2023-03-06T15:21:38.875Z,15.40
2023-03-06T15:24:35.876Z,14.80
2023-03-06T15:27:07.027Z,15.70
2023-03-06T15:29:38.343Z,17.00
2023-03-06T15:32:34.441Z,14.27
2023-03-06T15:35:34.253Z,16.02
2023-03-06T15:38:04.680Z,16.77
2023-03-06T15:40:33.441Z,15.20
2023-03-06T15:43:02.218Z,15.15
2023-03-06T15:45:32.301Z,14.73
2023-03-06T15:48:03.026Z,16.65
2023-03-06T15:50:31.603Z,14.60
2023-03-06T15:53:00.346Z,13.43
2023-03-06T15:55:29.007Z,12.65
2023-03-06T15:58:00.030Z,12.50
2023-03-06T16:00:41.123Z,12.48
2023-03-06T16:03:10.880Z,12.95
2023-03-06T16:05:39.442Z,12.60
2023-03-06T16:08:09.813Z,12.02
2023-03-06T16:10:39.662Z,11.93
2023-03-06T16:13:14.071Z,10.82
2023-03-06T16:15:50.109Z,11.43
2023-03-06T16:18:19.131Z,11.35
2023-03-06T16:20:47.693Z,10.98
2023-03-06T16:23:16.873Z,11.25
2023-03-06T16:25:47.530Z,11.05
2023-03-06T16:28:17.504Z,11.23
2023-03-06T16:30:46.115Z,11.23
2023-03-06T16:33:15.388Z,11.70
2023-03-06T16:35:46.798Z,10.88
2023-03-06T16:38:16.212Z,10.05
2023-03-06T16:40:44.831Z,11.75
2023-03-06T16:43:15.808Z,10.02
2023-03-06T16:45:44.322Z,11.25
2023-03-06T16:48:17.173Z,9.98
2023-03-06T16:50:45.793Z,9.98
2023-03-06T16:53:15.564Z,9.85
2023-03-06T16:55:44.050Z,10.60
2023-03-06T16:58:13.030Z,9.75
2023-03-06T17:00:41.731Z,9.57
2023-03-06T17:03:10.495Z,10.25
2023-03-06T17:05:38.984Z,9.73
2023-03-06T17:08:07.688Z,10.70
2023-03-06T17:10:36.193Z,9.30
2023-03-06T17:13:07.600Z,10.05
2023-03-06T17:15:36.259Z,10.68
2023-03-06T17:18:05.660Z,10.05
2023-03-06T17:20:34.179Z,9.00
2023-03-06T17:23:03.389Z,10.60
2023-03-06T17:25:31.925Z,10.25
2023-03-06T17:28:00.791Z,10.95
2023-03-06T17:30:29.221Z,10.55
2023-03-06T17:32:58.482Z,10.20
2023-03-06T17:35:26.980Z,10.43
2023-03-06T17:37:59.744Z,10.80
2023-03-06T17:40:28.341Z,11.70
2023-03-06T17:42:57.177Z,11.40
2023-03-06T17:45:25.696Z,10.13
2023-03-06T17:47:55.821Z,11.55
2023-03-06T17:50:24.392Z,11.40
2023-03-06T17:52:53.368Z,11.80
2023-03-06T17:55:21.931Z,10.32
2023-03-06T17:57:52.621Z,11.15
2023-03-06T18:00:23.186Z,11.52
2023-03-06T18:02:51.931Z,11.80
2023-03-06T18:05:22.019Z,12.05
2023-03-06T18:07:51.149Z,13.93
2023-03-06T18:10:19.783Z,12.57
2023-03-06T18:12:48.831Z,13.48
2023-03-06T18:15:17.565Z,12.80
2023-03-06T18:17:46.595Z,13.30
2023-03-06T18:20:15.271Z,14.50
2023-03-06T18:22:44.513Z,14.35
2023-03-06T18:25:12.909Z,14.07
2023-03-06T18:27:41.867Z,14.85
2023-03-06T18:30:11.449Z,13.75
2023-03-06T18:32:40.563Z,14.35
2023-03-06T18:35:09.682Z,15.27
2023-03-06T18:37:38.765Z,16.48
2023-03-06T18:40:08.286Z,15.65
2023-03-06T18:42:37.201Z,15.02
2023-03-06T18:45:06.630Z,15.82
2023-03-06T18:47:35.614Z,16.92
2023-03-06T18:50:04.664Z,14.77
2023-03-06T18:52:35.081Z,17.80
2023-03-06T18:55:04.153Z,16.92
2023-03-06T18:57:32.980Z,18.45
2023-03-06T19:00:01.841Z,17.52
2023-03-06T19:02:30.782Z,19.48
2023-03-06T19:04:59.504Z,21.00
2023-03-06T19:07:29.194Z,20.85
2023-03-06T19:09:57.640Z,23.00
2023-03-06T19:12:26.481Z,24.85
2023-03-06T19:14:54.985Z,25.23
2023-03-06T19:17:25.077Z,26.30
2023-03-06T19:19:55.576Z,27.02
2023-03-06T19:22:24.484Z,26.95
2023-03-06T19:24:53.164Z,28.13
2023-03-06T19:27:22.537Z,26.17
2023-03-06T19:29:50.888Z,25.63
2023-03-06T19:32:19.972Z,25.60
2023-03-06T19:34:51.495Z,27.00
2023-03-06T19:37:20.298Z,26.00
2023-03-06T19:39:48.694Z,26.27
2023-03-06T19:42:17.842Z,26.15
2023-03-06T19:44:46.370Z,25.70
2023-03-06T19:47:15.105Z,26.60
2023-03-06T19:49:43.485Z,25.80
2023-03-06T19:52:12.151Z,23.73
2023-03-06T19:54:40.693Z,24.48
2023-03-06T19:57:09.547Z,27.75
2023-03-06T19:59:37.957Z,25.42
2023-03-06T20:02:07.097Z,24.85
2023-03-06T20:04:35.828Z,25.35
2023-03-06T20:07:07.504Z,24.08
2023-03-06T20:09:36.163Z,25.98
2023-03-06T20:12:07.809Z,25.33
2023-03-06T20:14:38.326Z,24.40
2023-03-06T20:17:08.149Z,23.83
2023-03-06T20:19:37.141Z,23.83
2023-03-06T20:22:05.968Z,24.05
2023-03-06T20:24:34.586Z,24.77
2023-03-06T20:27:04.135Z,24.77
2023-03-06T20:29:32.601Z,24.02
2023-03-06T20:32:01.395Z,24.50
2023-03-06T20:34:29.933Z,23.48
2023-03-06T20:36:58.600Z,23.45
2023-03-06T20:39:27.084Z,24.52
2023-03-06T20:41:56.129Z,25.38
2023-03-06T20:44:24.792Z,25.23
2023-03-06T20:46:53.707Z,23.70
2023-03-06T20:49:22.409Z,21.85
2023-03-06T20:51:51.409Z,21.45
2023-03-06T20:54:19.747Z,23.92
2023-03-06T20:56:48.992Z,23.00
2023-03-06T20:59:17.466Z,22.88
2023-03-06T21:01:48.092Z,22.42
2023-03-06T21:04:16.788Z,22.98
2023-03-06T21:06:47.077Z,22.70
2023-03-06T21:09:16.792Z,22.42
2023-03-06T21:11:45.796Z,23.05
2023-03-06T21:14:14.670Z,21.70
2023-03-06T21:16:43.478Z,21.67
2023-03-06T21:19:11.951Z,21.98
2023-03-06T21:21:40.671Z,23.23
2023-03-06T21:24:09.262Z,22.02
2023-03-06T21:26:38.020Z,22.63
2023-03-06T21:29:06.348Z,22.63
2023-03-06T21:31:35.060Z,22.00
2023-03-06T21:34:05.067Z,22.90
2023-03-06T21:36:34.433Z,23.63
2023-03-06T21:39:06.489Z,22.88
2023-03-06T21:41:35.239Z,21.77
2023-03-06T21:44:05.268Z,23.42
2023-03-06T21:46:34.234Z,21.45
2023-03-06T21:49:04.402Z,20.77
2023-03-06T21:51:33.571Z,22.85
2023-03-06T21:54:03.110Z,21.58
2023-03-06T21:56:33.731Z,21.92
2023-03-06T21:59:02.280Z,21.33
2023-03-06T22:01:31.314Z,23.25
2023-03-06T22:04:00.353Z,21.60
2023-03-06T22:06:30.388Z,23.40
2023-03-06T22:08:59.746Z,21.30
2023-03-06T22:11:31.555Z,20.65
2023-03-06T22:14:00.387Z,21.77
2023-03-06T22:16:29.549Z,20.83
2023-03-06T22:18:58.110Z,22.33
2023-03-06T22:21:26.998Z,20.75
2023-03-06T22:24:00.374Z,21.23
2023-03-06T22:26:29.605Z,21.08
2023-03-06T22:28:58.046Z,21.05
2023-03-06T22:31:28.680Z,21.23
2023-03-06T22:33:59.996Z,21.00
2023-03-06T22:36:30.984Z,21.17
2023-03-06T22:39:01.544Z,22.17
2023-03-06T22:41:30.778Z,20.65
2023-03-06T22:44:00.571Z,23.52
2023-03-06T22:47:26.963Z,22.20
2023-03-06T22:49:55.406Z,20.48
2023-03-06T22:52:24.145Z,21.55
2023-03-06T22:54:52.567Z,22.48
2023-03-06T22:57:21.398Z,21.92
2023-03-06T22:59:49.853Z,21.63
2023-03-06T23:02:18.756Z,21.25
2023-03-06T23:04:52.497Z,20.38
2023-03-06T23:07:21.339Z,20.35
2023-03-06T23:09:50.710Z,22.60
2023-03-06T23:12:38.369Z,21.27
2023-03-06T23:15:25.622Z,19.52
2023-03-06T23:18:13.170Z,20.85
2023-03-06T23:21:00.492Z,21.75
2023-03-06T23:23:49.917Z,20.25
2023-03-06T23:26:20.327Z,21.13
2023-03-06T23:28:49.572Z,21.33
2023-03-06T23:31:30.299Z,22.40
2023-03-06T23:34:03.122Z,24.60
2023-03-06T23:36:31.914Z,21.83
2023-03-06T23:39:01.247Z,21.08
2023-03-06T23:41:30.233Z,21.08
2023-03-06T23:43:59.551Z,20.27
2023-03-06T23:46:28.267Z,21.90
2023-03-06T23:48:57.185Z,22.05
2023-03-06T23:51:25.763Z,22.08
2023-03-06T23:53:57.652Z,21.35
2023-03-06T23:56:27.687Z,20.48
2023-03-06T23:58:56.735Z,22.17
